Walcott, Canada
Current Conditions -  °F | °C
As of 3:21 AM on Saturday 25 Oct 2014 (Local Time) from CYYD Reporting Station
Haze Haze  
Wind Chill: 32°   Ceiling: 8000
Heat Index: 32°   Visibility: 2mi
Dew Point: 32°   Wind: 2mph
Humidity: 100%   Direction: 160°SSE
Pressure: 29.84"   Gusts: NA
Location:  54.52°N, 126.85°W
Report Text: CYYD 251021Z AUTO 16002KT 2SM BR SCT002 OVC080 00/00 A2984 RMK SLP120
Loading
Personal Weather Stations






























Interactive Weather Map
Tropical Storm Tracking
New forecast layout! Learn more

10-Day Weather Forecast

Advertisements
Track Severe Weather on mobile